KTEW

Details ICAO KTEW
Name MASON JEWETT FLD
Region United States
Timezone America/Detroit (UTC-4.0)
Plans Departing 1
Arriving 2
Stats Elevation 919 ft / 280 m (AMSL)
Location 42.565768° -84.423218°
Runways 1
Magnetic Variation 6.576° W
Sunrise 2018-05-25 10:08:25 UTC / 2018-05-25 06:08:25 Local
Sunset 2018-05-26 01:03:46 UTC / 2018-05-25 21:03:46 Local
Advertisement - Login to hide

Runways

ID Width Length Bearing (true) Bearing (mag) Surface Threshold Offset Overrun Length
09 75 ft / 23 m 3,991 ft / 1,216 m 90.13° 96.71° Asphalt 0 ft / 0 m 0 ft / 0 m
27 75 ft / 23 m 3,991 ft / 1,216 m 270.14° 276.72° Asphalt 0 ft / 0 m 0 ft / 0 m

Map

Weather


0- 5 10 15 20 25 30 35+ Temperature / ° C

Clouds and Precipitation
Forecast for 2018-05-25 18:00 UTC. Updated 3 hours ago

Ground ~20,000 ft ~40,000 ft Winds

METAR

KTEW 252035Z AUTO 24005KT 10SM CLR 30/12 A2986 RMK AO2 T02990120

TAF

Not found

Frequencies

Recorded 119.42 MHz AWOS 3
Approach 118.65 MHz LANSING APP/DEP
Unicom 122.70 MHz CTAF/UNICOM
Warning: Do not use this data for real-world aviation or navigation. No guarantee of current accuracy is given.